Time;durP1;ratioP1;P1;durP2;ratioP2;P2;SDS_P1;SDS_P2;PMS_P1;PMS_P2;Temp;Humidity;BMP_temperature;BMP_pressure;BME280_temperature;BME280_humidity;BME280_pressure;Samples;Min_cycle;Max_cycle;Signal;HPM_P1;HPM_P2
2021/10/18 00:01:34;;;;;;;0.40;0.40;;;;;;;5.90;86.87;99087.59;4811900;29;20082;-76
2021/10/18 00:04:00;;;;;;;0.40;0.40;;;;;;;5.88;86.97;99073.44;4796925;29;20602;-79
2021/10/18 00:06:26;;;;;;;0.40;0.40;;;;;;;5.91;86.47;99078.53;4813282;29;20528;-74
2021/10/18 00:08:52;;;;;;;0.40;0.40;;;;;;;5.90;87.39;99074.16;4796336;29;20084;-76
2021/10/18 00:11:19;;;;;;;0.40;0.40;;;;;;;5.89;87.79;99067.13;4808803;29;20055;-73
2021/10/18 00:13:45;;;;;;;0.40;0.40;;;;;;;5.86;88.18;99070.06;4812581;29;20090;-75
2021/10/18 00:16:11;;;;;;;0.40;0.40;;;;;;;5.81;88.53;99058.88;4797404;29;20099;-74
2021/10/18 00:18:37;;;;;;;0.40;0.40;;;;;;;5.78;88.06;99064.53;4812539;29;20078;-74
2021/10/18 00:21:03;;;;;;;0.40;0.40;;;;;;;5.74;88.25;99073.81;4796075;29;20141;-75
2021/10/18 00:23:28;;;;;;;0.40;0.40;;;;;;;5.74;88.53;99065.75;4806675;29;20082;-74
2021/10/18 00:25:54;;;;;;;0.40;0.40;;;;;;;5.71;88.61;99066.06;4808251;29;20071;-76
2021/10/18 00:28:20;;;;;;;0.40;0.40;;;;;;;5.74;88.87;99074.69;4780278;29;20070;-74
2021/10/18 00:30:46;;;;;;;0.40;0.40;;;;;;;5.69;89.26;99062.66;4811014;29;20130;-73
2021/10/18 00:33:12;;;;;;;0.40;0.40;;;;;;;5.63;89.14;99058.69;4810101;29;20108;-74
2021/10/18 00:35:38;;;;;;;0.40;0.40;;;;;;;5.68;89.47;99058.28;4805976;29;20059;-73
2021/10/18 00:38:04;;;;;;;0.40;0.40;;;;;;;5.65;89.36;99061.22;4805715;29;20071;-75
2021/10/18 00:40:30;;;;;;;0.40;0.40;;;;;;;5.65;89.75;99055.88;4789625;29;20059;-73
2021/10/18 00:42:56;;;;;;;0.40;0.40;;;;;;;5.64;89.82;99054.16;4805762;29;20058;-74
2021/10/18 00:45:21;;;;;;;0.40;0.40;;;;;;;5.57;90.03;99043.13;4804768;29;20050;-73
2021/10/18 00:47:47;;;;;;;0.40;0.40;;;;;;;5.51;90.17;99038.28;4791503;29;20522;-76
2021/10/18 00:50:13;;;;;;;0.40;0.40;;;;;;;5.54;90.46;99044.25;4808909;29;20210;-74
2021/10/18 00:52:39;;;;;;;0.40;0.40;;;;;;;5.54;90.08;99036.19;4793039;29;20073;-73
2021/10/18 00:55:06;;;;;;;0.40;0.40;;;;;;;5.52;89.78;99035.50;4792605;29;20111;-73
2021/10/18 00:57:32;;;;;;;0.40;0.40;;;;;;;5.55;89.96;99042.41;4808710;29;20144;-72
2021/10/18 00:59:58;;;;;;;0.40;0.40;;;;;;;5.51;89.27;99036.47;4808530;29;20518;-74
2021/10/18 01:02:25;;;;;;;0.40;0.40;;;;;;;5.47;89.40;99029.66;4791023;29;20062;-73
2021/10/18 01:04:51;;;;;;;0.40;0.40;;;;;;;5.42;89.53;99025.72;4790808;29;20112;-75
2021/10/18 01:07:16;;;;;;;0.40;0.40;;;;;;;5.39;89.83;99025.97;4791145;29;20470;-74
2021/10/18 01:09:44;;;;;;;0.40;0.40;;;;;;;5.41;89.99;99022.19;4791259;29;20082;-74
2021/10/18 01:12:10;;;;;;;0.40;0.40;;;;;;;5.31;89.83;99002.53;4807353;29;20554;-75
2021/10/18 01:14:36;;;;;;;0.40;0.40;;;;;;;5.35;89.87;99012.00;4806060;29;20070;-75
2021/10/18 01:17:03;;;;;;;0.40;0.40;;;;;;;5.31;89.84;99010.56;4791538;29;20472;-75
2021/10/18 01:19:29;;;;;;;0.40;0.40;;;;;;;5.32;90.01;99022.97;4778211;29;20059;-73
2021/10/18 01:21:58;;;;;;;0.40;0.40;;;;;;;5.28;90.25;99010.81;4778818;29;20088;-73
2021/10/18 01:24:24;;;;;;;0.40;0.40;;;;;;;5.25;90.29;99011.09;4792980;29;20059;-74
2021/10/18 01:26:50;;;;;;;0.40;0.40;;;;;;;5.21;90.45;99010.50;4792148;29;20146;-75
2021/10/18 01:29:16;;;;;;;0.40;0.40;;;;;;;5.25;90.07;99016.44;4805499;29;20142;-73
2021/10/18 01:31:41;;;;;;;0.40;0.40;;;;;;;5.22;90.34;99011.34;4789333;29;20155;-72
2021/10/18 01:34:08;;;;;;;0.40;0.40;;;;;;;5.23;90.20;99008.56;4774927;29;20054;-73
2021/10/18 01:36:35;;;;;;;0.40;0.40;;;;;;;5.25;90.15;99013.78;4789369;29;20054;-73
2021/10/18 01:39:01;;;;;;;0.40;0.40;;;;;;;5.27;89.90;99014.50;4805130;29;20062;-75
2021/10/18 01:41:27;;;;;;;0.40;0.40;;;;;;;5.28;89.98;99006.31;4773923;29;20055;-73
2021/10/18 01:43:52;;;;;;;0.40;0.40;;;;;;;5.32;89.80;99012.25;4789348;29;20070;-75
2021/10/18 01:46:18;;;;;;;0.40;0.40;;;;;;;5.37;89.43;99012.69;4773441;29;20424;-77
2021/10/18 01:48:44;;;;;;;0.40;0.40;;;;;;;5.40;89.43;99006.22;4803795;29;20150;-74
2021/10/18 01:51:10;;;;;;;0.40;0.40;;;;;;;5.38;89.05;99001.00;4788659;29;20084;-73
2021/10/18 01:53:37;;;;;;;0.40;0.40;;;;;;;5.43;89.13;99009.47;4788678;29;20546;-74
2021/10/18 01:56:03;;;;;;;0.40;0.40;;;;;;;5.42;88.91;98996.22;4788746;29;20062;-74
2021/10/18 01:58:32;;;;;;;0.40;0.40;;;;;;;5.40;88.58;98999.03;4789172;29;20078;-74
2021/10/18 02:01:02;;;;;;;0.40;0.40;;;;;;;5.44;88.83;98987.03;4789016;29;20066;-73
2021/10/18 02:03:28;;;;;;;0.40;0.40;;;;;;;5.48;88.93;98995.66;4804745;29;20191;-74
2021/10/18 02:05:54;;;;;;;0.40;0.40;;;;;;;5.48;88.90;98988.47;4787971;29;20110;-74
2021/10/18 02:08:20;;;;;;;0.40;0.40;;;;;;;5.48;88.68;98985.78;4805320;29;20058;-76
2021/10/18 02:10:46;;;;;;;0.40;0.40;;;;;;;5.50;88.59;98994.56;4788575;29;20071;-73
2021/10/18 02:13:11;;;;;;;0.40;0.40;;;;;;;5.52;88.41;98992.59;4803323;29;20063;-73
2021/10/18 02:15:37;;;;;;;0.40;0.40;;;;;;;5.51;88.42;98985.53;4804435;29;20135;-74
2021/10/18 02:18:03;;;;;;;0.40;0.40;;;;;;;5.52;88.55;98995.28;4803443;29;20397;-73
2021/10/18 02:20:29;;;;;;;0.40;0.40;;;;;;;5.50;88.17;98978.47;4803401;29;20202;-74
2021/10/18 02:22:55;;;;;;;0.32;0.32;;;;;;;5.51;88.27;98972.13;4789910;29;20509;-73
2021/10/18 02:25:21;;;;;;;0.40;0.40;;;;;;;5.48;88.19;98974.22;4807734;29;20158;-75
2021/10/18 02:27:49;;;;;;;0.40;0.40;;;;;;;5.53;88.38;98983.56;4792856;29;20058;-74
2021/10/18 02:30:15;;;;;;;0.40;0.40;;;;;;;5.51;88.17;98980.16;4806483;29;20063;-75
2021/10/18 02:32:42;;;;;;;0.40;0.40;;;;;;;5.49;88.21;98979.47;4789780;29;20090;-73
2021/10/18 02:35:09;;;;;;;0.40;0.40;;;;;;;5.43;88.87;98980.00;4805877;29;20070;-74
2021/10/18 02:37:36;;;;;;;0.40;0.40;;;;;;;5.47;88.41;98978.75;4803884;29;20062;-74
2021/10/18 02:40:03;;;;;;;0.40;0.40;;;;;;;5.48;88.45;98969.69;4789292;29;20112;-74
2021/10/18 02:42:30;;;;;;;0.40;0.40;;;;;;;5.44;88.57;98968.28;4804513;29;20070;-73
2021/10/18 02:44:56;;;;;;;0.40;0.40;;;;;;;5.41;88.48;98957.84;4788778;29;20146;-72
2021/10/18 02:47:22;;;;;;;0.40;0.40;;;;;;;5.37;88.98;98961.75;4803111;29;20118;-74
2021/10/18 02:49:47;;;;;;;0.40;0.40;;;;;;;5.31;88.68;98956.97;4802954;29;20079;-74
2021/10/18 02:52:13;;;;;;;0.40;0.40;;;;;;;5.29;89.23;98953.56;4788276;29;20063;-76
2021/10/18 02:54:39;;;;;;;0.40;0.40;;;;;;;5.20;89.51;98954.38;4805217;29;20063;-76
2021/10/18 02:57:05;;;;;;;0.40;0.40;;;;;;;5.15;89.61;98956.59;4803878;29;20062;-74
2021/10/18 02:59:32;;;;;;;0.40;0.40;;;;;;;5.04;90.03;98958.38;4803747;29;20201;-73
2021/10/18 03:01:58;;;;;;;0.40;0.40;;;;;;;5.08;89.93;98957.16;4788062;29;20145;-76
2021/10/18 03:04:24;;;;;;;0.40;0.40;;;;;;;4.96;89.82;98947.47;4788141;29;20059;-75
2021/10/18 03:06:51;;;;;;;0.40;0.40;;;;;;;4.90;90.61;98956.06;4773546;29;20069;-74
2021/10/18 03:09:17;;;;;;;0.40;0.40;;;;;;;4.76;90.91;98941.19;4773596;29;20522;-75
2021/10/18 03:11:43;;;;;;;0.40;0.40;;;;;;;4.66;91.45;98936.75;4804067;29;20138;-74
2021/10/18 03:14:09;;;;;;;0.40;0.40;;;;;;;4.56;92.37;98939.34;4804420;29;20526;-76
2021/10/18 03:16:35;;;;;;;0.40;0.40;;;;;;;4.45;92.89;98937.59;4804569;29;20146;-74
2021/10/18 03:19:01;;;;;;;0.40;0.40;;;;;;;4.37;93.09;98934.72;4788152;29;20070;-76
2021/10/18 03:21:26;;;;;;;0.40;0.40;;;;;;;4.22;93.41;98922.66;4788651;29;20512;-74
2021/10/18 03:23:52;;;;;;;0.40;0.40;;;;;;;4.23;93.53;98927.00;4806596;29;20158;-75
2021/10/18 03:26:19;;;;;;;0.40;0.40;;;;;;;4.17;94.30;98922.16;4790801;29;20477;-76
2021/10/18 03:28:45;;;;;;;0.40;0.40;;;;;;;4.13;94.21;98918.06;4790635;29;20090;-77
2021/10/18 03:31:11;;;;;;;0.45;0.45;;;;;;;4.06;94.44;98907.88;4792800;29;20070;-73
2021/10/18 03:33:40;;;;;;;0.40;0.40;;;;;;;4.02;94.47;98913.59;4807833;29;20443;-76
2021/10/18 03:36:07;;;;;;;0.40;0.40;;;;;;;3.95;94.61;98907.94;4806489;29;20058;-76
2021/10/18 03:38:33;;;;;;;0.40;0.40;;;;;;;3.96;94.79;98909.63;4791499;29;20055;-75
2021/10/18 03:40:59;;;;;;;0.40;0.40;;;;;;;3.89;94.78;98899.56;4806471;29;20152;-75
2021/10/18 03:43:25;;;;;;;0.40;0.40;;;;;;;3.87;95.04;98897.84;4790431;29;20112;-75
2021/10/18 03:45:51;;;;;;;0.40;0.40;;;;;;;3.85;95.35;98890.97;4803745;29;20054;-75
2021/10/18 03:48:17;;;;;;;0.40;0.40;;;;;;;3.80;95.14;98886.00;4790903;29;20059;-74
2021/10/18 03:50:43;;;;;;;0.40;0.40;;;;;;;3.73;95.66;98881.25;4805461;29;20457;-75
2021/10/18 03:53:09;;;;;;;0.40;0.40;;;;;;;3.72;95.54;98879.56;4790222;29;20098;-76
2021/10/18 03:55:35;;;;;;;0.40;0.40;;;;;;;3.71;96.09;98884.06;4776118;29;20618;-76
2021/10/18 03:58:02;;;;;;;0.40;0.40;;;;;;;3.70;95.93;98874.38;4805870;29;20207;-76
2021/10/18 04:00:28;;;;;;;0.40;0.40;;;;;;;3.71;95.67;98881.41;4805147;29;20622;-77
2021/10/18 04:02:54;;;;;;;0.40;0.40;;;;;;;3.73;95.91;98886.59;4805682;29;20058;-77
2021/10/18 04:05:20;;;;;;;0.40;0.40;;;;;;;3.80;95.79;98887.78;4809482;29;20063;-77
2021/10/18 04:07:47;;;;;;;0.40;0.40;;;;;;;3.77;95.31;98872.03;4805454;29;20067;-75
2021/10/18 04:10:14;;;;;;;0.40;0.40;;;;;;;3.86;95.16;98884.63;4804326;29;20457;-74
2021/10/18 04:12:41;;;;;;;0.50;0.50;;;;;;;3.92;94.55;98881.44;4804316;29;20054;-73
2021/10/18 04:15:07;;;;;;;0.40;0.40;;;;;;;4.02;94.52;98882.38;4804528;29;20078;-75
2021/10/18 04:17:33;;;;;;;0.40;0.40;;;;;;;4.09;93.73;98883.53;4805090;29;20504;-77
2021/10/18 04:19:59;;;;;;;0.40;0.40;;;;;;;4.11;93.24;98876.25;4793915;29;20080;-73
2021/10/18 04:22:24;;;;;;;0.40;0.40;;;;;;;4.21;92.98;98881.69;4790078;29;20070;-71
2021/10/18 04:24:50;;;;;;;0.40;0.40;;;;;;;4.31;92.45;98876.38;4794138;29;20065;-79
2021/10/18 04:27:16;;;;;;;0.40;0.40;;;;;;;4.32;92.21;98868.22;4808715;29;20093;-78
2021/10/18 04:29:42;;;;;;;0.40;0.40;;;;;;;4.41;91.76;98871.94;4816844;29;20097;-77
2021/10/18 04:32:08;;;;;;;0.40;0.40;;;;;;;4.47;91.54;98871.41;4810866;29;20111;-72
2021/10/18 04:34:34;;;;;;;0.40;0.40;;;;;;;4.48;91.30;98875.78;4804633;29;20270;-74
2021/10/18 04:37:00;;;;;;;0.40;0.40;;;;;;;4.49;91.06;98877.47;4799819;29;20146;-71
2021/10/18 04:39:26;;;;;;;0.40;0.40;;;;;;;4.55;90.52;98868.91;4819029;29;20071;-72
2021/10/18 04:41:53;;;;;;;0.50;0.50;;;;;;;4.66;90.11;98869.81;4818765;29;20062;-69
2021/10/18 04:44:19;;;;;;;0.40;0.40;;;;;;;4.69;89.68;98869.56;4805288;29;20119;-69
2021/10/18 04:46:45;;;;;;;0.50;0.50;;;;;;;4.71;89.43;98873.78;4803745;29;20058;-70
2021/10/18 04:49:11;;;;;;;0.40;0.40;;;;;;;4.71;89.44;98862.22;4805082;29;20065;-69
2021/10/18 04:51:36;;;;;;;0.40;0.40;;;;;;;4.78;89.36;98874.09;4803666;29;20059;-71
2021/10/18 04:54:02;;;;;;;0.40;0.40;;;;;;;4.71;89.19;98867.59;4805365;29;20141;-72
2021/10/18 04:56:28;;;;;;;0.40;0.40;;;;;;;4.67;89.66;98867.00;4803677;29;20066;-71
2021/10/18 04:58:54;;;;;;;0.40;0.40;;;;;;;4.63;89.87;98860.22;4803166;29;20273;-70
2021/10/18 05:01:20;;;;;;;0.40;0.40;;;;;;;4.67;89.55;98872.34;4803733;29;20153;-70
2021/10/18 05:03:46;;;;;;;0.40;0.40;;;;;;;4.69;89.50;98858.84;4805039;29;20146;-72
2021/10/18 05:06:12;;;;;;;0.40;0.40;;;;;;;4.67;89.69;98855.44;4818745;29;20136;-72
2021/10/18 05:08:38;;;;;;;0.40;0.40;;;;;;;4.73;89.65;98858.44;4788556;29;20063;-72
2021/10/18 05:11:04;;;;;;;0.40;0.40;;;;;;;4.76;89.64;98857.34;4818487;29;20061;-72
2021/10/18 05:13:30;;;;;;;0.40;0.40;;;;;;;4.73;89.55;98860.28;4803708;29;20217;-74
2021/10/18 05:15:56;;;;;;;0.40;0.40;;;;;;;4.74;89.39;98846.75;4818550;29;20138;-73
2021/10/18 05:18:22;;;;;;;0.40;0.40;;;;;;;4.88;89.36;98858.94;4818486;29;20059;-72
2021/10/18 05:20:49;;;;;;;0.40;0.40;;;;;;;4.90;88.49;98853.44;4818390;29;20070;-70
2021/10/18 05:23:15;;;;;;;0.40;0.40;;;;;;;4.97;88.56;98850.09;4803170;29;20082;-71
2021/10/18 05:25:41;;;;;;;0.40;0.40;;;;;;;4.97;88.24;98847.44;4803201;29;20149;-73
2021/10/18 05:28:08;;;;;;;0.40;0.40;;;;;;;4.94;88.10;98858.41;4818195;29;20453;-72
2021/10/18 05:30:35;;;;;;;0.40;0.40;;;;;;;4.97;88.37;98857.25;4817866;29;20511;-72
2021/10/18 05:33:01;;;;;;;0.40;0.40;;;;;;;4.98;88.67;98854.47;4803277;29;20093;-72
2021/10/18 05:35:27;;;;;;;0.40;0.40;;;;;;;5.05;88.03;98854.78;4804510;29;20184;-72
2021/10/18 05:37:54;;;;;;;0.40;0.40;;;;;;;5.06;88.23;98860.00;4788382;29;20081;-69
2021/10/18 05:40:22;;;;;;;0.40;0.40;;;;;;;5.07;87.68;98858.16;4818507;29;20059;-70
2021/10/18 05:42:48;;;;;;;0.40;0.40;;;;;;;5.10;87.90;98849.00;4818695;29;20077;-73
2021/10/18 05:45:14;;;;;;;0.40;0.40;;;;;;;5.15;87.64;98860.16;4803172;29;20063;-74
2021/10/18 05:47:58;;;;;;;0.40;0.40;;;;;;;5.18;87.85;98855.38;4803042;29;20428;-72
2021/10/18 05:50:26;;;;;;;0.40;0.40;;;;;;;5.12;87.89;98849.69;4804572;29;20526;-72
2021/10/18 05:52:52;;;;;;;0.40;0.40;;;;;;;5.12;87.60;98849.69;4803247;29;20151;-72
2021/10/18 05:55:18;;;;;;;0.40;0.40;;;;;;;5.15;87.91;98850.28;4787844;29;20082;-72
2021/10/18 05:57:55;;;;;;;0.40;0.40;;;;;;;5.11;87.70;98842.66;4803284;29;20059;-73
2021/10/18 06:00:22;;;;;;;0.40;0.40;;;;;;;5.07;87.33;98840.25;4819733;29;20058;-72
2021/10/18 06:02:49;;;;;;;0.40;0.40;;;;;;;5.18;87.31;98849.16;4821081;29;20082;-73
2021/10/18 06:05:15;;;;;;;0.40;0.40;;;;;;;5.24;87.48;98848.63;4805886;29;20262;-70
2021/10/18 06:07:41;;;;;;;0.40;0.40;;;;;;;5.22;87.20;98842.53;4788799;29;20090;-71
2021/10/18 06:10:09;;;;;;;0.40;0.40;;;;;;;5.23;86.82;98838.91;4804020;29;20120;-73
2021/10/18 06:12:35;;;;;;;0.40;0.40;;;;;;;5.29;86.67;98851.72;4803189;29;20482;-72
2021/10/18 06:15:03;;;;;;;0.40;0.40;;;;;;;5.22;87.14;98845.22;4803874;29;20062;-72
2021/10/18 06:17:29;;;;;;;0.40;0.40;;;;;;;5.35;86.93;98845.00;4804601;29;20082;-73
2021/10/18 06:19:55;;;;;;;0.40;0.40;;;;;;;5.39;86.85;98851.75;4802699;29;20138;-72
2021/10/18 06:22:21;;;;;;;0.40;0.40;;;;;;;5.37;87.41;98838.47;4802564;29;20151;-73
2021/10/18 06:24:49;;;;;;;0.40;0.40;;;;;;;5.32;86.62;98840.75;4802853;29;20157;-70
2021/10/18 06:27:16;;;;;;;0.40;0.40;;;;;;;5.35;86.94;98845.81;4803872;29;20119;-71
2021/10/18 06:29:41;;;;;;;0.40;0.40;;;;;;;5.43;86.85;98843.28;4817481;29;20119;-71
2021/10/18 06:32:07;;;;;;;0.40;0.40;;;;;;;5.43;87.03;98837.09;4817786;29;20062;-71
2021/10/18 06:34:33;;;;;;;0.40;0.40;;;;;;;5.42;87.07;98836.25;4817773;29;20063;-72
2021/10/18 06:36:59;;;;;;;0.40;0.40;;;;;;;5.49;86.64;98825.81;4802734;29;20067;-73
2021/10/18 06:39:25;;;;;;;0.40;0.40;;;;;;;5.44;87.12;98820.88;4817563;29;20055;-72
2021/10/18 06:41:51;;;;;;;0.40;0.40;;;;;;;5.39;87.81;98828.47;4804254;29;20063;-72
2021/10/18 06:44:16;;;;;;;0.40;0.40;;;;;;;5.39;87.95;98825.81;4804735;29;20516;-73
2021/10/18 06:46:42;;;;;;;0.40;0.40;;;;;;;5.36;88.10;98839.47;4804532;29;20069;-73
2021/10/18 06:49:08;;;;;;;0.40;0.40;;;;;;;5.35;88.95;98829.75;4803803;29;20065;-72
2021/10/18 06:51:38;;;;;;;0.40;0.40;;;;;;;5.35;88.35;98835.09;4804242;29;20066;-73
2021/10/18 06:54:05;;;;;;;0.50;0.50;;;;;;;5.37;88.44;98827.75;4802647;29;20063;-73
2021/10/18 06:56:30;;;;;;;0.40;0.40;;;;;;;5.39;87.87;98836.53;4803160;29;20519;-72
2021/10/18 06:58:56;;;;;;;0.40;0.40;;;;;;;5.48;88.07;98830.31;4803160;29;20054;-71
2021/10/18 07:01:22;;;;;;;0.40;0.40;;;;;;;5.43;88.38;98816.50;4817778;29;20066;-72
2021/10/18 07:03:48;;;;;;;0.40;0.40;;;;;;;5.43;88.76;98835.25;4787968;29;20059;-72
2021/10/18 07:06:14;;;;;;;0.40;0.40;;;;;;;5.45;88.95;98832.47;4818252;29;20113;-73
2021/10/18 07:08:39;;;;;;;0.40;0.40;;;;;;;5.47;89.08;98831.31;4803285;29;20150;-72
2021/10/18 07:11:05;;;;;;;0.40;0.40;;;;;;;5.46;89.23;98832.31;4804167;29;20071;-73
2021/10/18 07:13:31;;;;;;;0.40;0.40;;;;;;;5.53;89.09;98833.44;4804737;29;20050;-73
2021/10/18 07:15:57;;;;;;;0.40;0.40;;;;;;;5.47;89.77;98817.91;4805757;29;20070;-73
2021/10/18 07:18:22;;;;;;;0.40;0.40;;;;;;;5.51;90.23;98823.84;4803752;29;20066;-72
2021/10/18 07:20:48;;;;;;;0.40;0.40;;;;;;;5.43;91.31;98827.22;4802572;29;20296;-73
2021/10/18 07:23:14;;;;;;;0.40;0.40;;;;;;;5.45;91.72;98814.53;4790507;29;20131;-71
2021/10/18 07:25:42;;;;;;;0.40;0.40;;;;;;;5.46;91.60;98837.66;4805253;29;20090;-72
2021/10/18 07:28:08;;;;;;;0.40;0.40;;;;;;;5.52;91.78;98834.44;4805193;29;20501;-72
2021/10/18 07:30:36;;;;;;;0.40;0.40;;;;;;;5.50;92.60;98865.88;4806689;29;20070;-72
2021/10/18 07:33:02;;;;;;;0.40;0.40;;;;;;;5.46;91.23;98880.56;4806909;29;20067;-73
2021/10/18 07:35:32;;;;;;;0.40;0.40;;;;;;;5.38;90.08;98885.75;4805198;29;20498;-73
2021/10/18 07:37:59;;;;;;;0.40;0.40;;;;;;;5.13;88.66;98872.84;4805523;29;20062;-73
2021/10/18 07:40:27;;;;;;;0.40;0.40;;;;;;;5.06;89.59;98886.78;4805271;29;20124;-72
2021/10/18 07:42:53;;;;;;;0.50;0.50;;;;;;;5.17;89.87;98903.75;4805104;29;20216;-72
2021/10/18 07:45:19;;;;;;;0.45;0.45;;;;;;;5.10;89.03;98911.47;4804796;29;20633;-73
2021/10/18 07:47:45;;;;;;;0.40;0.40;;;;;;;5.01;87.50;98907.78;4804519;29;20074;-73
2021/10/18 07:50:12;;;;;;;0.50;0.50;;;;;;;5.01;86.56;98899.75;4806351;29;20062;-73
2021/10/18 07:52:40;;;;;;;0.50;0.50;;;;;;;4.93;85.20;98898.69;4819902;29;20055;-72
2021/10/18 07:55:13;;;;;;;0.40;0.40;;;;;;;4.94;85.25;98911.97;4820122;29;20120;-72
2021/10/18 07:57:40;;;;;;;0.40;0.40;;;;;;;4.91;86.22;98916.75;4804821;29;20091;-72
2021/10/18 08:00:07;;;;;;;0.43;0.43;;;;;;;4.91;86.22;98922.09;4805040;29;20058;-72
2021/10/18 08:02:35;;;;;;;0.40;0.40;;;;;;;4.86;85.42;98914.44;4805053;29;20067;-73
2021/10/18 08:05:01;;;;;;;0.40;0.40;;;;;;;4.96;85.53;98920.69;4807976;29;20065;-73
2021/10/18 08:07:28;;;;;;;0.40;0.40;;;;;;;5.04;84.16;98922.72;4821757;29;20078;-72
2021/10/18 08:09:55;;;;;;;0.50;0.50;;;;;;;5.04;84.08;98907.47;4807839;29;20071;-73
2021/10/18 08:12:21;;;;;;;0.50;0.50;;;;;;;5.05;82.55;98914.56;4808090;29;20055;-73
2021/10/18 08:14:47;;;;;;;0.50;0.50;;;;;;;5.17;83.19;98927.84;4805800;29;20070;-72
2021/10/18 08:17:13;;;;;;;0.60;0.60;;;;;;;4.99;79.94;98925.78;4805008;29;20464;-73
2021/10/18 08:19:38;;;;;;;0.60;0.60;;;;;;;5.29;81.26;98927.59;4820000;29;20062;-71
2021/10/18 08:22:04;;;;;;;0.60;0.60;;;;;;;5.54;78.93;98941.53;4806019;29;20058;-72
2021/10/18 08:24:30;;;;;;;0.60;0.60;;;;;;;5.65;79.34;98937.88;4804768;29;20123;-72
2021/10/18 08:26:56;;;;;;;0.60;0.60;;;;;;;5.66;78.18;98947.59;4805577;29;20542;-72
2021/10/18 08:29:21;;;;;;;0.50;0.50;;;;;;;5.65;77.42;98937.88;4819713;29;20538;-72
2021/10/18 08:31:47;;;;;;;0.50;0.50;;;;;;;5.70;76.66;98947.19;4804596;29;20558;-73
2021/10/18 08:34:13;;;;;;;0.50;0.50;;;;;;;5.75;77.20;98946.81;4818641;29;20066;-74
2021/10/18 08:36:39;;;;;;;0.50;0.50;;;;;;;5.98;76.24;98945.59;4805026;29;20210;-73
2021/10/18 08:42:03;;;;;;;0.60;0.60;;;;;;;6.57;73.60;98950.97;4818050;29;20543;-72
2021/10/18 08:44:29;;;;;;;0.60;0.60;;;;;;;7.08;72.75;98952.41;4804215;29;20417;-72
2021/10/18 08:46:58;;;;;;;0.50;0.50;;;;;;;7.27;71.23;98960.41;4805852;29;20070;-72
2021/10/18 08:49:25;;;;;;;0.50;0.50;;;;;;;7.20;70.07;98954.78;4804465;29;20508;-72
2021/10/18 08:51:51;;;;;;;0.50;0.50;;;;;;;7.19;70.24;98952.22;4819315;29;20146;-72
2021/10/18 08:54:17;;;;;;;0.50;0.50;;;;;;;7.18;69.97;98951.38;4819247;29;20051;-72
2021/10/18 08:56:43;;;;;;;0.50;0.50;;;;;;;7.25;69.55;98941.75;4804006;29;20528;-72
2021/10/18 08:59:10;;;;;;;0.50;0.50;;;;;;;7.22;69.05;98957.31;4819320;29;20149;-73
2021/10/18 09:01:44;;;;;;;0.50;0.50;;;;;;;7.29;70.26;98947.66;4804682;29;20075;-72
2021/10/18 09:04:11;;;;;;;0.60;0.60;;;;;;;7.49;68.90;98943.91;4804866;29;20055;-72
2021/10/18 09:06:43;;;;;;;1.45;1.45;;;;;;;9.18;65.36;98948.50;4790041;29;20356;-73
2021/10/18 09:09:09;;;;;;;0.80;0.80;;;;;;;10.89;60.05;98955.34;4805015;29;20073;-72
2021/10/18 09:11:35;;;;;;;0.60;0.60;;;;;;;10.52;60.73;98944.03;4806606;29;20062;-73
2021/10/18 09:14:02;;;;;;;1.60;1.60;;;;;;;12.20;56.13;98950.38;4804800;29;20062;-73
2021/10/18 09:16:37;;;;;;;0.80;0.80;;;;;;;13.82;50.46;98940.88;4819559;29;20105;-72
2021/10/18 09:19:10;;;;;;;1.30;1.30;;;;;;;15.50;46.95;98934.94;4820630;29;20065;-73
2021/10/18 09:21:40;;;;;;;1.40;1.40;;;;;;;16.37;44.86;98945.19;4804905;29;20062;-72
2021/10/18 09:24:09;;;;;;;1.30;1.30;;;;;;;17.29;40.61;98932.69;4806133;29;20114;-73
2021/10/18 09:26:36;;;;;;;1.20;1.20;;;;;;;18.63;38.78;98948.41;4789742;29;20063;-72
2021/10/18 09:29:04;;;;;;;0.40;0.40;;;;;;;17.40;39.01;98948.44;4789446;29;20055;-72
2021/10/18 09:31:30;;;;;;;0.20;0.20;;;;;;;15.89;42.93;98947.97;4804947;29;20157;-73
2021/10/18 09:34:18;;;;;;;1.35;1.35;;;;;;;16.42;39.30;98952.75;4789109;29;20145;-73
2021/10/18 09:36:44;;;;;;;0.40;0.40;;;;;;;16.31;39.54;98955.06;4789208;29;20082;-73
2021/10/18 09:39:24;;;;;;;0.20;0.20;;;;;;;14.72;41.65;98954.03;4788789;29;20058;-73
2021/10/18 09:42:00;;;;;;;0.20;0.20;;;;;;;13.22;45.18;98951.72;4788486;29;20141;-73
2021/10/18 10:52:43;;;;;;;0.30;0.30;;;;;;;16.52;34.63;98973.16;4787249;29;20169;-73
2021/10/18 10:55:26;;;;;;;0.40;0.40;;;;;;;14.67;37.58;98984.56;4802510;29;20165;-73
2021/10/18 10:57:55;;;;;;;0.30;0.30;;;;;;;14.57;38.27;98983.19;4807798;29;20189;-73
2021/10/18 11:00:36;;;;;;;1.08;1.08;;;;;;;15.17;38.60;98982.72;4821247;29;20063;-73
2021/10/18 11:03:31;;;;;;;0.30;0.30;;;;;;;13.63;41.91;98986.59;4791192;29;20508;-72
2021/10/18 11:06:04;;;;;;;0.30;0.30;;;;;;;12.47;43.12;98978.84;4805427;29;20120;-73
2021/10/18 11:08:38;;;;;;;0.30;0.30;;;;;;;10.88;47.71;98983.41;4791532;29;20146;-73
2021/10/18 11:11:14;;;;;;;0.30;0.30;;;;;;;10.51;49.10;98974.78;4790778;29;20101;-72
2021/10/18 11:13:54;;;;;;;0.43;0.43;;;;;;;12.01;46.65;98986.88;4807493;29;20058;-73
2021/10/18 11:16:22;;;;;;;0.30;0.30;;;;;;;10.38;50.06;98991.50;4808827;29;20055;-72
2021/10/18 11:18:54;;;;;;;0.90;0.90;;;;;;;10.32;50.56;98994.03;4807733;29;20066;-72
2021/10/18 11:21:28;;;;;;;0.80;0.80;;;;;;;10.48;51.55;98990.50;4776304;29;20059;-72
2021/10/18 11:24:12;;;;;;;0.40;0.40;;;;;;;10.62;50.46;98987.13;4790833;29;20107;-72
2021/10/18 11:26:42;;;;;;;0.40;0.40;;;;;;;9.59;53.81;98994.59;4807357;29;20069;-73
2021/10/18 11:29:10;;;;;;;0.40;0.40;;;;;;;8.67;56.22;98998.69;4805678;29;20058;-72
2021/10/18 11:31:41;;;;;;;1.10;1.10;;;;;;;10.89;50.61;98998.63;4807021;29;20097;-72
2021/10/18 11:34:13;;;;;;;0.70;0.70;;;;;;;12.27;47.70;98994.69;4805873;29;20062;-72
2021/10/18 11:36:41;;;;;;;0.40;0.40;;;;;;;12.57;45.31;99001.09;4806977;29;20508;-73
2021/10/18 11:39:07;;;;;;;0.60;0.60;;;;;;;13.16;44.04;99001.34;4807166;29;20089;-72
2021/10/18 11:41:59;;;;;;;0.80;0.80;;;;;;;12.89;42.39;98993.75;4806495;29;20447;-73
2021/10/18 11:44:44;;;;;;;0.90;0.90;;;;;;;14.08;39.93;98995.59;4790296;29;20054;-74
2021/10/18 11:47:30;;;;;;;0.80;0.80;;;;;;;14.81;38.27;99009.16;4805706;29;20534;-73
2021/10/18 11:50:08;;;;;;;0.80;0.80;;;;;;;15.49;36.69;98994.03;4805515;29;20051;-73
2021/10/18 11:52:41;;;;;;;0.80;0.80;;;;;;;15.67;37.12;98997.13;4806461;29;20568;-73
2021/10/18 11:55:09;;;;;;;0.80;0.80;;;;;;;15.92;36.02;98983.00;4805080;29;20099;-73
2021/10/18 11:57:39;;;;;;;0.70;0.70;;;;;;;16.94;34.45;98995.72;4805115;29;20157;-73
2021/10/18 12:00:07;;;;;;;0.70;0.70;;;;;;;16.44;34.16;98989.72;4805531;29;20065;-72
2021/10/18 12:02:42;;;;;;;0.77;0.77;;;;;;;16.00;34.26;98985.56;4805994;29;20059;-73
2021/10/18 12:05:09;;;;;;;0.70;0.70;;;;;;;15.63;34.63;98974.00;4789852;29;20107;-73
2021/10/18 12:07:46;;;;;;;0.70;0.70;;;;;;;14.54;35.58;98984.41;4804653;29;20062;-73
2021/10/18 12:10:19;;;;;;;0.60;0.60;;;;;;;14.18;37.28;98981.66;4805966;29;20066;-73
2021/10/18 12:13:03;;;;;;;;;;;;;;;13.77;36.74;98981.38;4806412;29;20145;-73
2021/10/18 12:15:30;;;;;;;0.50;0.50;;;;;;;13.41;38.03;98984.81;4804819;29;20015;-73
2021/10/18 12:17:57;;;;;;;0.20;0.20;;;;;;;12.42;39.35;98975.81;4805925;29;20115;-73
2021/10/18 12:20:23;;;;;;;0.88;0.40;;;;;;;10.66;42.39;98982.25;4804554;29;20059;-72
2021/10/18 12:23:06;;;;;;;0.60;0.60;;;;;;;11.12;42.14;98988.81;4804394;29;20637;-72
2021/10/18 12:25:33;;;;;;;0.80;0.80;;;;;;;12.68;39.94;98981.69;4789907;29;20092;-72
2021/10/18 12:28:26;;;;;;;0.70;0.70;;;;;;;13.62;38.24;98989.50;4805831;29;20153;-73
2021/10/18 12:30:51;;;;;;;0.60;0.60;;;;;;;14.03;37.22;98986.28;4805845;29;20066;-73
2021/10/18 12:33:17;;;;;;;0.60;0.60;;;;;;;14.29;36.69;98985.78;4759719;29;20055;-73
2021/10/18 12:35:56;;;;;;;0.60;0.60;;;;;;;13.90;36.80;98981.56;4805990;29;20583;-73
2021/10/18 12:38:25;;;;;;;0.50;0.50;;;;;;;14.65;34.57;98978.47;4804222;29;20076;-73
2021/10/18 12:40:51;;;;;;;0.60;0.60;;;;;;;14.99;33.92;98981.50;4789404;29;20086;-73
2021/10/18 12:43:27;;;;;;;0.60;0.60;;;;;;;14.79;34.36;98970.44;4760037;29;20090;-73
2021/10/18 12:45:53;;;;;;;0.60;0.60;;;;;;;15.14;33.44;98977.66;4806257;29;20090;-73
2021/10/18 12:48:22;;;;;;;0.50;0.50;;;;;;;14.95;34.18;98975.59;4789393;29;20097;-73
2021/10/18 12:50:49;;;;;;;0.50;0.50;;;;;;;15.24;33.51;98973.75;4805902;29;20058;-71
2021/10/18 12:53:30;;;;;;;0.45;0.45;;;;;;;14.93;34.28;98972.25;4804358;29;20124;-73